Altoona, IA

3:53 AM CDT on September 02, 2015 (GMT -0500)
Altoona, Iowa Weather | | Change Station
CLOSE
Current Station
Personal Weather Station
Location: Altoona, IA
Elevation: 968 ft
Nearby Weather Stations

Elev 968 ft 41.63 °N, 93.47 °W | Updated 6 seconds ago

Rain
Rain
72.4 °F
Feels Like 70 °F
N
6.0
Wind Variable Wind from SSW
Gusts 11.0 mph

Today
High -- | Low -- °F
--% Chance of Precip.
Yesterday
High -- | Low -- °F
Precip. -- in
6:40 AM 7:45 PM
Waning Gibbous, 82% visible
Pressure 29.95 in
Visibility 6.0 miles
Clouds Few 3300 ft
Mostly Cloudy 3800 ft
Overcast 5500 ft
Heat Index 70 °F
Dew Point 69 °F
Humidity 89%
Rainfall 0.02 in
Snow Depth Not available.
UV 0 out of 12
Pollen 11.50 out of 12
Air Quality Not available.
Flu Activity Not available.
METAR KIKV 020835Z AUTO 19009KT 6SM -RA FEW033 BKN038 OVC055 23/21 A2995 RMK AO2
Pressure 29.95 in
Visibility 6.0 miles
Clouds Few 3300 ft
Mostly Cloudy 3800 ft
Overcast 5500 ft
Heat Index 70 °F
Dew Point 69 °F
Humidity 89%
Rainfall 0.02 in
Snow Depth Not available.
UV 0 out of 12
Pollen 11.50 out of 12
Air Quality Not available.
Flu Activity Not available.
METAR KIKV 020835Z AUTO 19009KT 6SM -RA FEW033 BKN038 OVC055 23/21 A2995 RMK AO2

10-Day Weather Forecast

×

Almanac

Astronomy

Sep. 02, 2015 Rise Set
Actual Time
Civil Twilight
Nautical Twilight
Astronomical Twilight
Moon
Length of Visible Light
Length of Day
Tomorrow will be .
, % of the Moon is Illuminated

Today's Extremes

State Highs State Lows

Community

WunderPhotos

Upload Photos

1,851,728 photos uploaded!

WunderBlogs® & News

Nearby

Air Quality

  Air Quality AQ Index Pollutant
Not available.

Snow Depth

Station Depth Elevation

Earthquake Activity

City Distance Mag. Time & Date
Minimum magnitude displayed is 2.5.

Coastal Water Temperatures

Place Temperature

Stations

Nearby Weather Stations

Station Location Temp. Windchill Dew Point Humidity Wind Precip. Elev Updated Type